Time;durP1;ratioP1;P1;durP2;ratioP2;P2;SDS_P1;SDS_P2;PMS_P1;PMS_P2;Temp;Humidity;BMP_temperature;BMP_pressure;BME280_temperature;BME280_humidity;BME280_pressure;Samples;Min_cycle;Max_cycle;Signal;HPM_P1;HPM_P2
2022/03/20 00:01:26;;;;;;;21.33;14.90;;;;;;;;;;4984129;28;20212;-63
2022/03/20 00:03:54;;;;;;;25.23;16.17;;;;;;;;;;4963265;28;20290;-61
2022/03/20 00:06:22;;;;;;;27.37;17.83;;;;;;;;;;4968745;28;20250;-61
2022/03/20 00:08:52;;;;;;;20.90;15.37;;;;;;;;;;4988268;28;20223;-64
2022/03/20 00:11:19;;;;;;;24.50;15.27;;;;;;;;;;4979853;28;22154;-61
2022/03/20 00:13:46;;;;;;;23.33;16.07;;;;;;;;;;4994904;28;20286;-61
2022/03/20 00:16:14;;;;;;;23.07;15.40;;;;;;;;;;4994385;28;20650;-63
2022/03/20 00:18:42;;;;;;;19.93;14.97;;;;;;;;;;4993484;28;20219;-62
2022/03/20 00:21:11;;;;;;;22.73;15.07;;;;;;;;;;4967946;28;20851;-59
2022/03/20 00:23:39;;;;;;;23.40;14.80;;;;;;;;;;4977967;28;20211;-63
2022/03/20 00:26:07;;;;;;;20.90;14.40;;;;;;;;;;4989005;28;20199;-62
2022/03/20 00:28:34;;;;;;;22.10;14.47;;;;;;;;;;4994826;28;20226;-62
2022/03/20 00:31:01;;;;;;;21.70;15.00;;;;;;;;;;4975817;28;20533;-61
2022/03/20 00:33:29;;;;;;;24.40;15.60;;;;;;;;;;4985364;28;20258;-63
2022/03/20 00:35:56;;;;;;;21.23;15.17;;;;;;;;;;4973155;28;20212;-63
2022/03/20 00:38:24;;;;;;;21.37;14.97;;;;;;;;;;4979408;28;20325;-62
2022/03/20 00:40:51;;;;;;;24.37;15.17;;;;;;;;;;4994743;28;20212;-61
2022/03/20 00:43:19;;;;;;;23.17;14.87;;;;;;;;;;4988494;28;20215;-60
2022/03/20 00:45:46;;;;;;;21.70;15.73;;;;;;;;;;4988060;28;20262;-62
2022/03/20 00:48:13;;;;;;;20.00;14.53;;;;;;;;;;4986248;28;20923;-62
2022/03/20 00:50:41;;;;;;;23.20;15.37;;;;;;;;;;4983459;28;20322;-60
2022/03/20 00:53:09;;;;;;;21.27;15.17;;;;;;;;;;4974507;28;20617;-62
2022/03/20 00:55:37;;;;;;;20.53;14.80;;;;;;;;;;4996088;28;20229;-60
2022/03/20 00:58:04;;;;;;;24.70;15.60;;;;;;;;;;4993396;28;20212;-62
2022/03/20 01:00:32;;;;;;;21.87;14.77;;;;;;;;;;4962675;28;21386;-59
2022/03/20 01:03:00;;;;;;;23.00;14.90;;;;;;;;;;4987798;28;20218;-61
2022/03/20 01:05:28;;;;;;;23.20;14.83;;;;;;;;;;4986837;28;20212;-60
2022/03/20 01:07:57;;;;;;;21.77;15.17;;;;;;;;;;4993553;28;20212;-62
2022/03/20 01:10:25;;;;;;;20.13;15.40;;;;;;;;;;4988825;28;20219;-61
2022/03/20 01:12:52;;;;;;;21.70;14.37;;;;;;;;;;4989717;28;20652;-60
2022/03/20 01:15:20;;;;;;;22.00;15.80;;;;;;;;;;4988375;28;20316;-62
2022/03/20 01:17:49;;;;;;;22.87;14.87;;;;;;;;;;4988761;28;20701;-62
2022/03/20 01:20:17;;;;;;;24.33;15.57;;;;;;;;;;4976620;28;20270;-60
2022/03/20 01:22:45;;;;;;;25.97;16.37;;;;;;;;;;4984951;28;20232;-61
2022/03/20 01:25:18;;;;;;;23.57;15.93;;;;;;;;;;4984129;28;20565;-61
2022/03/20 01:27:46;;;;;;;24.60;16.00;;;;;;;;;;4995311;28;20199;-60
2022/03/20 01:30:14;;;;;;;26.47;16.87;;;;;;;;;;4973555;28;20266;-60
2022/03/20 01:32:41;;;;;;;24.17;15.97;;;;;;;;;;4988147;28;23869;-61
2022/03/20 01:35:11;;;;;;;24.40;16.10;;;;;;;;;;4990387;28;20222;-60
2022/03/20 01:37:41;;;;;;;25.33;15.73;;;;;;;;;;4991933;28;20662;-60
2022/03/20 01:40:09;;;;;;;24.97;16.07;;;;;;;;;;4993040;28;20219;-62
2022/03/20 01:42:38;;;;;;;27.60;16.50;;;;;;;;;;4982717;28;20215;-60
2022/03/20 01:45:14;;;;;;;22.80;16.40;;;;;;;;;;4983466;28;20235;-61
2022/03/20 01:47:41;;;;;;;28.63;16.63;;;;;;;;;;4983689;28;20219;-62
2022/03/20 01:50:09;;;;;;;23.87;16.10;;;;;;;;;;4990326;28;20219;-61
2022/03/20 01:52:36;;;;;;;25.00;16.97;;;;;;;;;;4985422;28;20223;-60
2022/03/20 01:55:04;;;;;;;25.40;17.37;;;;;;;;;;4988693;28;20204;-61
2022/03/20 01:57:36;;;;;;;23.93;17.30;;;;;;;;;;4992372;28;20204;-60
2022/03/20 02:00:05;;;;;;;23.80;16.50;;;;;;;;;;4969451;28;20236;-62
2022/03/20 02:02:32;;;;;;;24.67;16.73;;;;;;;;;;4982689;28;20222;-61
2022/03/20 02:05:01;;;;;;;25.70;17.40;;;;;;;;;;4974325;28;20297;-61
2022/03/20 02:07:29;;;;;;;25.43;16.97;;;;;;;;;;4978206;28;20255;-63
2022/03/20 02:09:57;;;;;;;28.07;17.43;;;;;;;;;;4973641;28;20231;-63
2022/03/20 02:12:24;;;;;;;24.60;16.87;;;;;;;;;;4991119;28;20253;-61
2022/03/20 02:14:52;;;;;;;21.77;16.60;;;;;;;;;;4975483;28;20211;-62
2022/03/20 02:17:20;;;;;;;21.63;15.73;;;;;;;;;;4973507;28;20211;-62
2022/03/20 02:19:47;;;;;;;26.87;17.53;;;;;;;;;;4965992;28;20238;-59
2022/03/20 02:22:15;;;;;;;23.13;16.70;;;;;;;;;;4974012;28;20584;-63
2022/03/20 02:24:44;;;;;;;26.00;17.27;;;;;;;;;;4981372;28;20214;-62
2022/03/20 02:27:12;;;;;;;25.97;16.83;;;;;;;;;;4990079;28;20235;-61
2022/03/20 02:29:40;;;;;;;28.63;17.70;;;;;;;;;;4984274;28;20235;-61
2022/03/20 02:32:08;;;;;;;27.63;18.03;;;;;;;;;;4979733;28;20858;-61
2022/03/20 02:34:36;;;;;;;23.70;16.80;;;;;;;;;;4981626;28;20222;-61
2022/03/20 02:37:04;;;;;;;24.90;17.03;;;;;;;;;;4971980;28;20203;-62
2022/03/20 02:39:32;;;;;;;27.30;17.90;;;;;;;;;;4969645;28;20888;-62
2022/03/20 02:42:05;;;;;;;27.23;18.10;;;;;;;;;;4989268;28;20226;-61
2022/03/20 02:45:05;;;;;;;26.33;17.03;;;;;;;;;;4990988;28;20215;-63
2022/03/20 02:47:33;;;;;;;24.10;17.80;;;;;;;;;;4955738;28;20239;-61
2022/03/20 02:50:05;;;;;;;29.80;19.40;;;;;;;;;;4989920;28;20223;-61
2022/03/20 02:52:49;;;;;;;31.70;19.57;;;;;;;;;;4984602;28;20253;-62
2022/03/20 02:55:18;;;;;;;30.23;19.67;;;;;;;;;;4981793;28;20262;-61
2022/03/20 02:57:47;;;;;;;32.13;20.43;;;;;;;;;;4984711;28;20203;-60
2022/03/20 03:00:17;;;;;;;32.17;20.37;;;;;;;;;;4987663;28;20228;-63
2022/03/20 03:02:45;;;;;;;26.00;17.30;;;;;;;;;;4966877;28;20218;-60
2022/03/20 03:05:18;;;;;;;25.10;16.77;;;;;;;;;;4978863;28;20281;-60
2022/03/20 03:13:20;;;;;;;26.27;17.73;;;;;;;;;;4979850;28;20936;-60
2022/03/20 03:15:47;;;;;;;27.90;18.03;;;;;;;;;;4966452;28;20236;-62
2022/03/20 03:18:15;;;;;;;28.80;18.67;;;;;;;;;;4991016;28;20621;-62
2022/03/20 03:20:42;;;;;;;28.77;18.13;;;;;;;;;;4977576;28;20227;-61
2022/03/20 03:23:09;;;;;;;27.27;18.60;;;;;;;;;;4979640;28;20216;-61
2022/03/20 03:25:40;;;;;;;26.87;18.77;;;;;;;;;;4963496;28;20204;-62
2022/03/20 03:28:09;;;;;;;28.40;18.50;;;;;;;;;;4988078;28;20212;-61
2022/03/20 03:30:37;;;;;;;26.70;18.67;;;;;;;;;;4982372;28;20260;-62
2022/03/20 03:33:04;;;;;;;27.97;18.47;;;;;;;;;;4966026;28;20228;-62
2022/03/20 03:35:44;;;;;;;26.30;17.17;;;;;;;;;;4984845;28;20199;-61
2022/03/20 03:38:16;;;;;;;26.67;17.63;;;;;;;;;;4986494;28;20215;-62
2022/03/20 03:40:45;;;;;;;25.67;17.30;;;;;;;;;;4985711;28;20633;-61
2022/03/20 03:43:14;;;;;;;27.80;18.70;;;;;;;;;;4983202;28;20207;-62
2022/03/20 03:45:43;;;;;;;24.80;17.20;;;;;;;;;;4981206;28;20223;-62
2022/03/20 03:48:11;;;;;;;28.83;19.00;;;;;;;;;;4970249;28;20314;-62
2022/03/20 03:50:39;;;;;;;26.43;18.50;;;;;;;;;;4962025;28;20712;-62
2022/03/20 03:53:09;;;;;;;25.77;18.40;;;;;;;;;;4977265;28;20231;-62
2022/03/20 03:55:37;;;;;;;27.43;18.80;;;;;;;;;;4989281;28;20666;-60
2022/03/20 03:58:05;;;;;;;33.33;20.20;;;;;;;;;;4991081;28;20203;-62
2022/03/20 04:00:34;;;;;;;30.70;19.97;;;;;;;;;;4985426;28;20227;-61
2022/03/20 04:03:02;;;;;;;29.93;19.53;;;;;;;;;;4988538;28;20207;-61
2022/03/20 04:05:30;;;;;;;27.67;19.67;;;;;;;;;;4983585;28;20211;-61
2022/03/20 04:07:57;;;;;;;30.00;19.87;;;;;;;;;;4969776;28;20218;-62
2022/03/20 04:10:25;;;;;;;35.83;19.87;;;;;;;;;;4979666;28;20239;-62
2022/03/20 04:12:52;;;;;;;28.30;20.27;;;;;;;;;;4971489;28;20709;-62
2022/03/20 04:15:24;;;;;;;30.13;20.47;;;;;;;;;;4971996;28;20211;-62
2022/03/20 04:17:52;;;;;;;31.87;19.20;;;;;;;;;;4984512;28;21852;-61
2022/03/20 04:20:20;;;;;;;29.53;19.77;;;;;;;;;;4981431;28;20230;-62
2022/03/20 04:25:34;;;;;;;32.23;19.83;;;;;;;;;;4989577;28;20214;-62
2022/03/20 04:28:02;;;;;;;27.60;19.53;;;;;;;;;;4969727;28;21260;-61
2022/03/20 04:30:32;;;;;;;30.10;20.40;;;;;;;;;;4979104;28;21240;-63
2022/03/20 04:33:00;;;;;;;28.87;19.33;;;;;;;;;;4968774;28;20231;-60
2022/03/20 04:35:27;;;;;;;30.17;19.83;;;;;;;;;;4975281;28;20218;-62
2022/03/20 04:38:01;;;;;;;28.57;19.40;;;;;;;;;;4976464;28;20206;-61
2022/03/20 04:40:29;;;;;;;31.43;20.23;;;;;;;;;;4974958;28;20681;-60
2022/03/20 04:42:56;;;;;;;32.73;20.93;;;;;;;;;;4977822;28;20223;-63
2022/03/20 04:45:26;;;;;;;30.60;20.07;;;;;;;;;;4970759;28;20207;-62
2022/03/20 04:59:17;;;;;;;30.40;20.73;;;;;;;;;;4992473;28;20246;-63
2022/03/20 05:01:44;;;;;;;31.90;21.47;;;;;;;;;;4987176;28;20208;-62
2022/03/20 05:04:13;;;;;;;29.53;20.07;;;;;;;;;;4964475;28;20220;-62
2022/03/20 05:06:40;;;;;;;29.57;20.47;;;;;;;;;;4982077;28;20214;-60
2022/03/20 05:14:40;;;;;;;32.03;21.70;;;;;;;;;;4990454;28;20329;-63
2022/03/20 05:17:09;;;;;;;31.87;21.10;;;;;;;;;;4984005;28;21000;-61
2022/03/20 05:19:38;;;;;;;31.17;21.00;;;;;;;;;;4960554;28;20305;-61
2022/03/20 05:22:06;;;;;;;29.60;21.80;;;;;;;;;;4992059;28;20623;-61
2022/03/20 05:24:34;;;;;;;32.47;22.13;;;;;;;;;;4963787;28;20223;-60
2022/03/20 05:27:01;;;;;;;31.97;21.23;;;;;;;;;;4991121;28;20211;-61
2022/03/20 05:29:29;;;;;;;31.37;21.03;;;;;;;;;;4964036;28;20231;-62
2022/03/20 05:31:57;;;;;;;33.10;21.57;;;;;;;;;;4981973;28;20242;-62
2022/03/20 05:34:25;;;;;;;35.20;21.33;;;;;;;;;;4958736;28;20273;-63
2022/03/20 05:36:52;;;;;;;29.37;20.90;;;;;;;;;;4979024;28;20208;-63
2022/03/20 05:39:19;;;;;;;31.67;21.53;;;;;;;;;;4964080;28;20894;-60
2022/03/20 05:41:47;;;;;;;30.20;21.67;;;;;;;;;;4987146;28;21389;-61
2022/03/20 05:44:19;;;;;;;34.63;22.17;;;;;;;;;;4989708;28;21410;-58
2022/03/20 05:46:48;;;;;;;30.83;21.87;;;;;;;;;;4985161;28;21181;-61
2022/03/20 05:49:16;;;;;;;31.57;21.90;;;;;;;;;;4981316;28;20250;-60
2022/03/20 05:51:44;;;;;;;32.47;21.47;;;;;;;;;;4985462;28;20207;-63
2022/03/20 05:54:11;;;;;;;33.90;21.90;;;;;;;;;;4980554;28;20234;-62
2022/03/20 05:59:25;;;;;;;32.33;21.87;;;;;;;;;;4984656;28;20228;-61
2022/03/20 06:01:53;;;;;;;29.87;21.10;;;;;;;;;;4968093;28;20218;-60
2022/03/20 06:04:21;;;;;;;29.27;20.67;;;;;;;;;;4985484;28;20638;-60
2022/03/20 06:06:49;;;;;;;30.70;20.33;;;;;;;;;;4982683;28;20212;-60
2022/03/20 06:09:16;;;;;;;30.37;21.27;;;;;;;;;;4982389;28;20226;-59
2022/03/20 06:11:44;;;;;;;30.23;21.40;;;;;;;;;;4963946;28;20299;-59
2022/03/20 06:14:11;;;;;;;31.33;21.33;;;;;;;;;;4998851;28;20235;-59
2022/03/20 06:16:38;;;;;;;35.23;23.37;;;;;;;;;;4958934;28;20212;-62
2022/03/20 06:19:07;;;;;;;29.77;22.53;;;;;;;;;;4988775;28;20657;-62
2022/03/20 06:21:34;;;;;;;31.17;22.03;;;;;;;;;;4980674;28;21432;-62
2022/03/20 06:24:02;;;;;;;33.63;21.90;;;;;;;;;;4971284;28;20220;-61
2022/03/20 06:26:30;;;;;;;34.27;22.77;;;;;;;;;;4990377;28;20612;-61
2022/03/20 06:28:58;;;;;;;41.87;27.03;;;;;;;;;;4985267;28;21015;-62
2022/03/20 06:31:25;;;;;;;41.47;26.30;;;;;;;;;;4983662;28;20623;-61
2022/03/20 06:33:58;;;;;;;38.90;22.63;;;;;;;;;;4986740;28;20242;-61
2022/03/20 06:36:26;;;;;;;31.50;21.93;;;;;;;;;;4973425;28;23262;-62
2022/03/20 06:38:53;;;;;;;30.07;21.63;;;;;;;;;;4980766;28;20231;-62
2022/03/20 06:41:20;;;;;;;30.17;21.57;;;;;;;;;;4988837;28;20215;-61
2022/03/20 06:43:48;;;;;;;32.60;21.97;;;;;;;;;;4983706;28;20258;-60
2022/03/20 06:46:16;;;;;;;32.03;22.97;;;;;;;;;;4985169;28;20230;-61
2022/03/20 06:48:52;;;;;;;33.10;22.63;;;;;;;;;;4982564;28;20235;-60
2022/03/20 06:51:22;;;;;;;43.03;27.80;;;;;;;;;;4975095;28;20237;-60
2022/03/20 06:53:50;;;;;;;35.13;24.13;;;;;;;;;;4987925;28;20246;-60
2022/03/20 06:56:18;;;;;;;34.80;24.07;;;;;;;;;;4984356;28;20207;-61
2022/03/20 06:58:45;;;;;;;35.03;24.70;;;;;;;;;;4965141;28;20227;-61
2022/03/20 07:01:12;;;;;;;36.00;24.27;;;;;;;;;;4988923;28;20235;-59
2022/03/20 07:03:40;;;;;;;31.90;23.63;;;;;;;;;;4985639;28;21811;-61
2022/03/20 07:06:07;;;;;;;34.87;23.90;;;;;;;;;;4976775;28;20600;-61
2022/03/20 07:08:35;;;;;;;33.90;24.80;;;;;;;;;;4981592;28;20289;-61
2022/03/20 07:11:02;;;;;;;33.53;22.87;;;;;;;;;;4977329;28;20388;-63
2022/03/20 07:13:48;;;;;;;36.43;23.60;;;;;;;;;;4980603;28;20309;-62
2022/03/20 07:16:16;;;;;;;35.90;24.10;;;;;;;;;;4986337;28;20211;-61
2022/03/20 07:18:45;;;;;;;33.70;23.30;;;;;;;;;;4987629;28;20223;-61
2022/03/20 07:21:18;;;;;;;32.17;23.07;;;;;;;;;;4982695;28;20767;-60
2022/03/20 07:23:47;;;;;;;38.37;26.47;;;;;;;;;;4964464;28;20220;-60
2022/03/20 07:31:48;;;;;;;34.73;25.13;;;;;;;;;;4986042;28;20215;-62
2022/03/20 07:34:17;;;;;;;32.60;23.70;;;;;;;;;;4981941;28;20232;-61
2022/03/20 07:36:44;;;;;;;35.97;25.27;;;;;;;;;;4991468;28;20199;-61
2022/03/20 07:39:12;;;;;;;34.43;24.50;;;;;;;;;;4980528;28;20218;-63
2022/03/20 07:41:40;;;;;;;33.43;22.37;;;;;;;;;;4979541;28;20212;-63
2022/03/20 07:44:08;;;;;;;31.40;22.83;;;;;;;;;;4990755;28;20203;-61
2022/03/20 07:46:40;;;;;;;32.93;21.97;;;;;;;;;;4984357;28;20273;-62
2022/03/20 07:49:08;;;;;;;35.90;24.37;;;;;;;;;;4989246;28;20267;-61
2022/03/20 07:51:37;;;;;;;31.70;22.10;;;;;;;;;;4977108;28;20234;-62
2022/03/20 07:54:05;;;;;;;33.43;22.50;;;;;;;;;;4987071;28;20696;-61
2022/03/20 07:56:35;;;;;;;31.23;22.23;;;;;;;;;;4963500;28;20223;-61
2022/03/20 07:59:06;;;;;;;31.83;21.70;;;;;;;;;;4997470;28;20341;-61
2022/03/20 08:01:34;;;;;;;29.67;21.30;;;;;;;;;;4971363;28;20306;-62
2022/03/20 08:04:02;;;;;;;29.30;21.20;;;;;;;;;;4978376;28;20216;-62
2022/03/20 08:06:30;;;;;;;29.33;21.33;;;;;;;;;;4981073;28;20215;-63
2022/03/20 08:09:01;;;;;;;32.30;21.63;;;;;;;;;;4966773;28;20495;-61
2022/03/20 08:11:28;;;;;;;29.07;21.07;;;;;;;;;;4986111;28;20204;-62
2022/03/20 08:13:57;;;;;;;29.67;20.07;;;;;;;;;;4972665;28;20223;-62
2022/03/20 08:16:29;;;;;;;29.37;20.67;;;;;;;;;;4990640;28;21162;-61
2022/03/20 08:18:56;;;;;;;27.70;20.20;;;;;;;;;;4973143;28;20251;-62
2022/03/20 08:21:24;;;;;;;32.80;22.67;;;;;;;;;;4976011;28;20725;-61
2022/03/20 08:23:53;;;;;;;31.93;21.40;;;;;;;;;;4979374;28;20211;-60
2022/03/20 08:26:20;;;;;;;27.63;20.20;;;;;;;;;;4975207;28;20286;-61
2022/03/20 08:28:48;;;;;;;26.97;19.60;;;;;;;;;;4987492;28;20223;-64
2022/03/20 08:31:15;;;;;;;30.03;19.93;;;;;;;;;;4964884;28;20199;-61
2022/03/20 08:33:43;;;;;;;26.97;20.00;;;;;;;;;;4983494;28;20203;-60
2022/03/20 08:36:14;;;;;;;27.30;19.33;;;;;;;;;;4973433;28;20219;-60
2022/03/20 08:38:41;;;;;;;23.77;17.63;;;;;;;;;;4966585;28;20227;-61
2022/03/20 08:41:09;;;;;;;27.50;20.13;;;;;;;;;;4960186;28;20233;-61
2022/03/20 08:43:36;;;;;;;26.40;19.90;;;;;;;;;;4986105;28;21403;-61
2022/03/20 08:46:04;;;;;;;27.10;18.97;;;;;;;;;;4952585;28;20211;-61
2022/03/20 08:48:31;;;;;;;26.23;18.60;;;;;;;;;;4952726;28;20218;-62
2022/03/20 08:50:58;;;;;;;24.53;18.23;;;;;;;;;;4955279;28;20231;-62
2022/03/20 08:53:27;;;;;;;23.90;17.23;;;;;;;;;;4953202;28;20893;-61
2022/03/20 08:55:54;;;;;;;26.83;18.90;;;;;;;;;;4975646;28;20362;-62
2022/03/20 08:58:22;;;;;;;26.37;17.83;;;;;;;;;;4974890;28;20210;-61
2022/03/20 09:00:50;;;;;;;29.23;18.23;;;;;;;;;;4981796;28;20224;-62
2022/03/20 09:03:19;;;;;;;25.00;17.70;;;;;;;;;;4962005;28;20242;-63
2022/03/20 09:05:48;;;;;;;24.63;17.13;;;;;;;;;;4975354;28;20219;-62
2022/03/20 09:08:16;;;;;;;24.87;17.30;;;;;;;;;;4978537;28;20212;-62
2022/03/20 09:10:43;;;;;;;23.67;17.50;;;;;;;;;;4977412;28;20239;-61
2022/03/20 09:13:11;;;;;;;23.80;17.40;;;;;;;;;;4978102;28;20220;-63
2022/03/20 09:15:38;;;;;;;27.73;18.47;;;;;;;;;;4977477;28;20238;-61
2022/03/20 09:20:52;;;;;;;25.23;17.07;;;;;;;;;;4967493;28;20230;-60
2022/03/20 09:23:19;;;;;;;24.67;17.57;;;;;;;;;;4966158;28;20203;-63
2022/03/20 09:25:47;;;;;;;26.03;18.10;;;;;;;;;;4948400;28;20203;-62
2022/03/20 09:28:15;;;;;;;22.70;17.63;;;;;;;;;;4975667;28;20890;-62
2022/03/20 09:30:42;;;;;;;25.90;18.23;;;;;;;;;;4985821;28;20306;-63
2022/03/20 09:33:10;;;;;;;22.43;17.23;;;;;;;;;;4980795;28;20207;-63
2022/03/20 09:35:38;;;;;;;24.83;18.03;;;;;;;;;;4984067;28;20260;-62
2022/03/20 09:38:09;;;;;;;23.23;17.43;;;;;;;;;;4970658;28;20507;-61
2022/03/20 09:40:37;;;;;;;24.03;18.27;;;;;;;;;;4976178;28;20266;-62
2022/03/20 09:43:06;;;;;;;24.13;17.33;;;;;;;;;;4981171;28;20208;-61
2022/03/20 09:45:34;;;;;;;22.60;17.03;;;;;;;;;;4984363;28;20216;-63
2022/03/20 09:48:02;;;;;;;21.97;17.80;;;;;;;;;;4972730;28;20215;-61
2022/03/20 09:50:30;;;;;;;23.30;17.23;;;;;;;;;;4965852;28;20235;-61
2022/03/20 09:52:58;;;;;;;23.63;17.83;;;;;;;;;;4984674;28;20215;-62
2022/03/20 09:55:26;;;;;;;24.37;16.83;;;;;;;;;;4962326;28;20243;-61
2022/03/20 09:57:57;;;;;;;23.00;16.90;;;;;;;;;;4981682;28;20234;-63
2022/03/20 10:00:25;;;;;;;25.73;17.27;;;;;;;;;;4983136;28;20250;-60
2022/03/20 10:02:52;;;;;;;22.53;17.03;;;;;;;;;;4986022;28;20208;-61
2022/03/20 10:05:21;;;;;;;23.20;17.07;;;;;;;;;;4960091;28;20216;-62
2022/03/20 10:07:48;;;;;;;27.97;18.20;;;;;;;;;;4982042;28;20207;-61
2022/03/20 10:10:23;;;;;;;24.20;17.97;;;;;;;;;;4981591;28;20223;-62
2022/03/20 10:12:53;;;;;;;21.75;18.67;;;;;;;;;;4993073;28;20465;-61
2022/03/20 10:15:34;;;;;;;21.33;17.03;;;;;;;;;;4997486;28;20230;-60
2022/03/20 10:18:09;;;;;;;22.13;16.23;;;;;;;;;;5002034;28;20208;-63
2022/03/20 10:20:46;;;;;;;20.70;16.90;;;;;;;;;;4994184;28;20243;-61
2022/03/20 10:23:31;;;;;;;22.50;17.27;;;;;;;;;;5000071;28;20573;-62
2022/03/20 10:25:59;;;;;;;19.90;15.83;;;;;;;;;;4997633;28;20640;-61
2022/03/20 10:28:37;;;;;;;19.90;15.97;;;;;;;;;;5001095;28;20619;-62
2022/03/20 10:31:05;;;;;;;19.80;15.60;;;;;;;;;;5013388;28;20215;-63
2022/03/20 10:33:40;;;;;;;20.67;14.83;;;;;;;;;;4979396;28;20576;-62
2022/03/20 10:36:08;;;;;;;21.80;17.20;;;;;;;;;;4988095;28;20305;-62
2022/03/20 10:38:38;;;;;;;16.80;13.23;;;;;;;;;;4996967;28;20207;-62
2022/03/20 10:41:38;;;;;;;18.23;12.80;;;;;;;;;;4981953;28;20294;-62
2022/03/20 10:44:27;;;;;;;15.53;12.43;;;;;;;;;;4974507;28;20220;-60
2022/03/20 10:47:13;;;;;;;21.93;13.73;;;;;;;;;;4996264;28;20306;-63
2022/03/20 10:49:42;;;;;;;17.03;13.77;;;;;;;;;;4998173;28;20955;-62
2022/03/20 10:52:18;;;;;;;13.73;11.10;;;;;;;;;;4987228;28;21488;-61
2022/03/20 10:54:47;;;;;;;19.23;11.50;;;;;;;;;;4977664;28;20231;-62
2022/03/20 10:57:16;;;;;;;15.73;11.83;;;;;;;;;;4999083;28;20208;-62
2022/03/20 10:59:44;;;;;;;15.73;10.83;;;;;;;;;;4996832;28;20216;-61
2022/03/20 11:02:22;;;;;;;15.97;10.77;;;;;;;;;;4983095;28;20559;-62
2022/03/20 11:04:50;;;;;;;13.67;11.00;;;;;;;;;;4975419;28;20207;-62
2022/03/20 11:07:18;;;;;;;14.93;10.87;;;;;;;;;;4973856;28;20289;-61
2022/03/20 11:09:49;;;;;;;17.13;10.83;;;;;;;;;;4978699;28;20238;-61
2022/03/20 11:12:32;;;;;;;13.93;10.83;;;;;;;;;;4995236;28;20215;-62
2022/03/20 11:15:00;;;;;;;12.73;10.37;;;;;;;;;;4998779;28;20271;-62
2022/03/20 11:17:30;;;;;;;14.57;10.07;;;;;;;;;;4988613;28;20210;-61
2022/03/20 11:19:58;;;;;;;13.80;10.98;;;;;;;;;;4972514;28;20227;-60
2022/03/20 11:22:26;;;;;;;13.57;10.82;;;;;;;;;;4995006;28;20258;-60
2022/03/20 11:24:55;;;;;;;13.25;9.90;;;;;;;;;;4996628;28;20198;-60
2022/03/20 11:27:26;;;;;;;13.85;11.18;;;;;;;;;;5000703;28;20204;-61
2022/03/20 11:30:13;;;;;;;14.75;10.85;;;;;;;;;;5002261;28;20736;-61
2022/03/20 11:32:43;;;;;;;12.65;10.77;;;;;;;;;;4994627;28;20730;-61
2022/03/20 11:35:10;;;;;;;16.92;10.15;;;;;;;;;;4976540;28;20235;-62
2022/03/20 11:37:42;;;;;;;12.35;10.75;;;;;;;;;;4999969;28;20294;-61
2022/03/20 11:40:10;;;;;;;14.98;10.32;;;;;;;;;;4986414;28;20594;-61
2022/03/20 11:42:37;;;;;;;16.65;10.52;;;;;;;;;;5002012;28;20207;-62
2022/03/20 11:45:06;;;;;;;14.68;10.70;;;;;;;;;;5001763;28;20265;-61
2022/03/20 11:47:35;;;;;;;16.13;11.20;;;;;;;;;;4994609;28;20223;-60
2022/03/20 11:50:10;;;;;;;13.05;11.57;;;;;;;;;;5002269;28;20258;-61
2022/03/20 11:52:49;;;;;;;13.38;11.27;;;;;;;;;;4981971;28;20206;-61
2022/03/20 11:55:43;;;;;;;14.38;12.73;;;;;;;;;;4998995;28;20223;-61
2022/03/20 11:58:20;;;;;;;16.88;12.75;;;;;;;;;;4969207;28;20571;-61
2022/03/20 12:01:03;;;;;;;15.57;12.07;;;;;;;;;;4999545;28;20711;-61
2022/03/20 12:03:33;;;;;;;15.32;12.25;;;;;;;;;;5004805;28;20207;-62
2022/03/20 12:06:01;;;;;;;16.13;11.75;;;;;;;;;;4980641;28;20534;-62
2022/03/20 12:08:31;;;;;;;16.13;12.82;;;;;;;;;;4989833;28;20211;-63
2022/03/20 12:11:09;;;;;;;15.68;12.38;;;;;;;;;;4987461;28;20437;-63
2022/03/20 12:13:49;;;;;;;16.75;13.13;;;;;;;;;;4991847;28;20206;-63
2022/03/20 12:16:35;;;;;;;19.05;16.48;;;;;;;;;;4996427;28;20224;-63
2022/03/20 12:19:11;;;;;;;19.92;16.75;;;;;;;;;;4996119;28;20311;-62
2022/03/20 12:21:57;;;;;;;21.13;16.52;;;;;;;;;;4995191;28;20701;-62
2022/03/20 12:24:42;;;;;;;20.77;16.55;;;;;;;;;;4994656;28;20204;-62
2022/03/20 12:27:24;;;;;;;18.45;15.93;;;;;;;;;;5001077;28;20204;-63
2022/03/20 12:29:51;;;;;;;18.63;15.90;;;;;;;;;;4990801;28;20227;-62
2022/03/20 12:32:23;;;;;;;20.33;15.63;;;;;;;;;;4989518;28;20606;-62
2022/03/20 12:35:02;;;;;;;18.98;15.70;;;;;;;;;;4993596;28;20231;-63
2022/03/20 12:37:31;;;;;;;20.55;16.02;;;;;;;;;;4972801;28;20209;-61
2022/03/20 12:40:05;;;;;;;19.98;16.23;;;;;;;;;;4980032;28;20599;-62
2022/03/20 12:42:33;;;;;;;17.98;15.15;;;;;;;;;;4976398;28;20216;-61
2022/03/20 12:45:03;;;;;;;19.17;14.90;;;;;;;;;;4976394;28;20204;-62
2022/03/20 12:47:32;;;;;;;20.70;15.63;;;;;;;;;;4979747;28;20215;-61
2022/03/20 12:50:00;;;;;;;17.50;14.98;;;;;;;;;;4993833;28;20239;-60
2022/03/20 12:52:30;;;;;;;19.20;14.43;;;;;;;;;;4972690;28;20215;-61
2022/03/20 12:54:58;;;;;;;17.73;14.88;;;;;;;;;;4986025;28;20255;-61
2022/03/20 12:57:38;;;;;;;17.35;14.77;;;;;;;;;;4993081;28;20207;-61
2022/03/20 13:00:07;;;;;;;19.48;14.68;;;;;;;;;;4987988;28;20227;-60
2022/03/20 13:02:34;;;;;;;17.35;14.15;;;;;;;;;;4972197;28;20245;-62
2022/03/20 13:05:08;;;;;;;17.45;13.57;;;;;;;;;;4962939;28;20326;-61
2022/03/20 13:07:41;;;;;;;17.25;13.80;;;;;;;;;;4986486;28;20219;-62
2022/03/20 13:10:10;;;;;;;15.45;12.90;;;;;;;;;;4982197;28;20227;-61
2022/03/20 13:13:01;;;;;;;17.55;12.98;;;;;;;;;;4984772;28;20802;-61
2022/03/20 13:15:32;;;;;;;18.20;13.50;;;;;;;;;;4980308;28;20736;-62
2022/03/20 13:18:01;;;;;;;14.60;12.52;;;;;;;;;;4971058;28;20211;-62
2022/03/20 13:20:30;;;;;;;18.70;11.80;;;;;;;;;;4989691;28;20557;-61
2022/03/20 13:22:58;;;;;;;19.45;13.10;;;;;;;;;;4980444;28;21496;-61
2022/03/20 13:25:26;;;;;;;14.15;11.70;;;;;;;;;;4986902;28;20732;-62
2022/03/20 13:27:54;;;;;;;14.93;11.45;;;;;;;;;;4988150;28;20257;-61
2022/03/20 13:30:32;;;;;;;14.82;11.48;;;;;;;;;;4990430;28;20697;-63
2022/03/20 13:33:00;;;;;;;16.13;11.15;;;;;;;;;;4996091;28;20216;-63
2022/03/20 13:35:28;;;;;;;15.25;10.65;;;;;;;;;;4981592;28;20233;-62
2022/03/20 13:38:00;;;;;;;13.02;10.10;;;;;;;;;;4999499;28;20208;-62
2022/03/20 13:40:29;;;;;;;16.00;10.75;;;;;;;;;;4970636;28;20664;-62
2022/03/20 13:42:57;;;;;;;13.25;10.52;;;;;;;;;;4989138;28;20211;-63
2022/03/20 13:45:25;;;;;;;14.18;10.75;;;;;;;;;;4975417;28;20269;-62
2022/03/20 13:47:55;;;;;;;15.00;11.30;;;;;;;;;;4981678;28;20445;-61
2022/03/20 13:50:24;;;;;;;16.10;11.38;;;;;;;;;;4970551;28;21196;-62
2022/03/20 13:52:51;;;;;;;16.70;10.70;;;;;;;;;;4971088;28;20212;-62
2022/03/20 13:55:21;;;;;;;15.80;10.90;;;;;;;;;;4973035;28;21178;-62
2022/03/20 13:58:01;;;;;;;12.95;10.48;;;;;;;;;;4968288;28;20211;-61
2022/03/20 14:00:33;;;;;;;16.13;11.13;;;;;;;;;;4977783;28;20238;-60
2022/03/20 14:03:02;;;;;;;16.95;11.55;;;;;;;;;;4973443;28;21137;-63
2022/03/20 14:05:30;;;;;;;15.80;11.15;;;;;;;;;;4980286;28;20203;-60
2022/03/20 14:08:04;;;;;;;12.32;10.35;;;;;;;;;;4984772;28;21061;-62
2022/03/20 14:10:32;;;;;;;14.15;10.07;;;;;;;;;;4975855;28;20650;-62
2022/03/20 14:13:29;;;;;;;15.80;10.75;;;;;;;;;;4967312;28;20226;-61
2022/03/20 14:16:03;;;;;;;14.90;10.60;;;;;;;;;;4954114;28;20239;-60
2022/03/20 14:18:31;;;;;;;13.90;11.30;;;;;;;;;;4977821;28;20208;-63
2022/03/20 14:21:12;;;;;;;12.90;9.90;;;;;;;;;;4979934;28;20456;-62
2022/03/20 14:23:56;;;;;;;12.18;9.93;;;;;;;;;;4971467;28;20211;-61
2022/03/20 14:26:33;;;;;;;13.82;10.38;;;;;;;;;;4969806;28;20207;-61
2022/03/20 14:29:02;;;;;;;13.20;9.88;;;;;;;;;;4975363;28;20361;-61
2022/03/20 14:40:05;;;;;;;16.77;10.73;;;;;;;;;;4956160;28;20362;-63
2022/03/20 14:42:34;;;;;;;16.00;11.88;;;;;;;;;;4975564;28;20859;-61
2022/03/20 14:45:04;;;;;;;16.80;10.52;;;;;;;;;;4979717;28;20274;-61
2022/03/20 14:47:34;;;;;;;12.88;10.95;;;;;;;;;;4978987;28;20217;-63
2022/03/20 14:50:04;;;;;;;16.30;10.80;;;;;;;;;;4967375;28;20222;-65
2022/03/20 14:52:32;;;;;;;15.65;10.02;;;;;;;;;;4974289;28;20212;-61
2022/03/20 14:55:01;;;;;;;11.05;9.90;;;;;;;;;;4983304;28;20344;-62
2022/03/20 14:57:29;;;;;;;20.13;15.18;;;;;;;;;;4980828;28;20247;-61
2022/03/20 14:59:56;;;;;;;13.90;11.45;;;;;;;;;;4976735;28;20224;-63
2022/03/20 15:02:23;;;;;;;27.42;24.77;;;;;;;;;;4972777;28;20305;-63
2022/03/20 15:04:51;;;;;;;19.48;11.30;;;;;;;;;;4981918;28;20291;-62
2022/03/20 15:07:19;;;;;;;15.75;11.82;;;;;;;;;;4952043;28;20696;-64
2022/03/20 15:12:32;;;;;;;15.52;11.57;;;;;;;;;;4973930;28;20231;-61
2022/03/20 15:15:00;;;;;;;14.60;11.75;;;;;;;;;;4967387;28;20215;-62
2022/03/20 15:17:27;;;;;;;14.27;11.77;;;;;;;;;;4959431;28;20234;-62
2022/03/20 15:19:55;;;;;;;18.00;12.15;;;;;;;;;;4973512;28;20227;-62